Airfield :
LOGIN :

Register | Disclaimer

   EN    FR    IT 

 










Legend :    VFR   Marginal VFR   IFR   Intensive IFR   Very Intensive IFR
Visi :
Ceiling :
>= 8 km
>= 3000ft
5 to 8 km
1000 to 3000 ft
1500m to 5 km
500 to 1000 ft
800 to 1500m
200 to 500 ft
< 800m
< 200 ft
Symbols :   Thunderstorms  Fog  Heavy snow  Heavy precipitations  Wind > 20 kt
SIGMETs :     Misc.  Thunderstorms  Icing  Turbulence  Mountain Waves  Volcanic Ashes







- Airport Elevation : 610 ft
- IATA code : VXO


ESMX - Växjö Kronoberg

CURRENT METAR :
  • 210250Z AUTO 19010KT 9999 SCT008/// BKN012/// OVC023/// 15/14 Q1005 REDZ

EXPIRED METARs :
  • 210220Z AUTO 20009KT 9999 FEW011/// SCT017/// BKN022/// 15/14 Q1006
  • 210150Z AUTO 20011KT 9999 SCT012/// BKN018/// 15/14 Q1006
  • 210120Z AUTO 21011KT 9999 FEW008/// SCT012/// 15/14 Q1007
  • 210050Z AUTO 22009KT 9999 SCT011/// 15/14 Q1007
  • 210020Z AUTO 22009KT 9999 FEW013/// SCT053/// 15/14 Q1007

Expired Forecast.
No reported NOTAMs for that airfield.



MET'MAP, your aeronautical weather chart ! - Copyright ORBIFLY December 2007 - Disclaimer

ORBIFLY MET'MAP TEAM :

Programming & Development : Alexandra Zaïnal
Concept & Development : Baudouin d'Aumeries
Co-Development & Prog : Marc-Olivier Méhu
Technical & hardware support : Manuel Goepfert

Contact : metmap@orbifly.com




SOURCES & CREDITS :

   NOAA